Time;durP1;ratioP1;P1;durP2;ratioP2;P2;SDS_P1;SDS_P2;PMS_P1;PMS_P2;Temp;Humidity;BMP_temperature;BMP_pressure;BME280_temperature;BME280_humidity;BME280_pressure;Samples;Min_cycle;Max_cycle;Signal;HPM_P1;HPM_P2
2022/06/17 00:01:58;;;;;;;1.65;0.60;;;17.20;86.90;;;16.59;100.00;98235.66;5000927;28;20100;-68
2022/06/17 00:04:25;;;;;;;5.88;0.90;;;17.10;87.30;;;16.52;100.00;98235.97;5000716;28;20124;-67
2022/06/17 00:07:00;;;;;;;2.45;0.70;;;17.00;88.10;;;16.47;100.00;98229.31;4998940;28;20136;-67
2022/06/17 00:09:29;;;;;;;2.60;0.60;;;16.90;88.80;;;16.38;100.00;98232.47;4999785;28;20972;-67
2022/06/17 00:11:56;;;;;;;3.50;0.77;;;16.80;89.50;;;16.21;100.00;98230.75;5002237;28;20082;-67
2022/06/17 00:14:33;;;;;;;2.40;0.68;;;16.70;89.90;;;16.19;100.00;98227.38;5002562;28;20089;-68
2022/06/17 00:17:04;;;;;;;2.90;0.60;;;16.60;90.00;;;16.12;100.00;98226.03;5000710;28;20050;-69
2022/06/17 00:19:31;;;;;;;3.28;0.70;;;16.60;90.00;;;16.12;100.00;98236.50;4999092;28;20239;-68
2022/06/17 00:21:58;;;;;;;1.52;0.73;;;16.50;90.10;;;16.07;100.00;98240.22;4996443;28;20240;-68
2022/06/17 00:24:31;;;;;;;1.27;0.60;;;16.50;90.30;;;16.19;100.00;98240.47;4998522;28;20074;-69
2022/06/17 00:26:58;;;;;;;1.63;0.68;;;16.50;90.20;;;16.23;100.00;98234.97;5000006;28;20647;-69
2022/06/17 00:29:29;;;;;;;3.15;0.90;;;16.60;90.30;;;16.18;100.00;98231.78;5000550;28;20085;-68
2022/06/17 00:31:59;;;;;;;2.75;0.85;;;16.60;90.10;;;16.18;100.00;98228.31;4999778;28;20121;-67
2022/06/17 00:34:27;;;;;;;4.43;0.70;;;16.60;90.30;;;16.27;100.00;98227.81;4999786;28;20137;-67
2022/06/17 00:37:00;;;;;;;2.97;0.60;;;16.60;90.20;;;16.30;100.00;98225.84;4997693;28;20141;-68
2022/06/17 00:39:31;;;;;;;3.88;0.60;;;16.60;90.10;;;16.34;100.00;98221.28;4999982;28;20137;-68
2022/06/17 00:42:11;;;;;;;2.42;0.70;;;16.70;90.10;;;16.36;100.00;98226.47;4995707;28;20047;-68
2022/06/17 00:44:55;;;;;;;7.40;0.95;;;16.70;90.10;;;16.44;100.00;98213.75;4993148;28;20058;-68
2022/06/17 00:47:46;;;;;;;2.75;0.70;;;16.80;90.00;;;16.58;100.00;98219.09;4999628;28;20104;-67
2022/06/17 00:50:42;;;;;;;2.38;0.60;;;16.90;89.70;;;16.60;100.00;98209.34;4999197;28;20728;-66
2022/06/17 00:53:33;;;;;;;1.60;0.70;;;16.90;89.40;;;16.59;100.00;98210.28;5000623;28;20098;-68
2022/06/17 00:56:08;;;;;;;1.10;0.63;;;16.90;89.80;;;16.56;100.00;98207.84;4997801;28;20125;-68
2022/06/17 00:59:04;;;;;;;2.75;0.63;;;16.90;90.00;;;16.64;100.00;98205.59;4998381;28;20045;-69
2022/06/17 01:02:04;;;;;;;3.28;0.98;;;17.00;90.10;;;16.51;100.00;98218.59;5000687;28;20145;-68
2022/06/17 01:04:37;;;;;;;1.88;0.68;;;17.00;90.00;;;16.62;100.00;98219.75;4998681;28;20057;-68
2022/06/17 01:07:20;;;;;;;5.57;0.82;;;16.90;90.00;;;16.54;100.00;98220.19;4997759;28;20129;-66
2022/06/17 01:09:58;;;;;;;1.92;0.73;;;17.00;90.00;;;16.52;100.00;98225.50;5014392;28;20041;-68
2022/06/17 01:12:49;;;;;;;3.03;0.80;;;16.90;90.20;;;16.40;100.00;98230.56;5000611;28;20046;-68
2022/06/17 01:15:29;;;;;;;3.22;0.88;;;16.80;90.30;;;16.39;100.00;98226.28;4998138;28;20138;-68
2022/06/17 01:17:57;;;;;;;1.92;0.63;;;16.80;90.40;;;16.37;100.00;98221.13;4998623;28;20042;-68
2022/06/17 01:20:27;;;;;;;3.20;0.95;;;16.80;90.40;;;16.31;100.00;98224.09;4999586;28;20292;-67
2022/06/17 01:22:59;;;;;;;3.28;1.35;;;16.80;90.50;;;16.33;100.00;98213.50;4999535;28;20452;-67
2022/06/17 01:25:33;;;;;;;2.80;0.80;;;16.70;90.50;;;16.44;100.00;98208.53;5002849;28;20053;-67
2022/06/17 01:28:08;;;;;;;3.85;0.73;;;16.70;90.50;;;16.38;100.00;98212.34;4996529;28;20057;-68
2022/06/17 01:30:38;;;;;;;5.97;0.90;;;16.80;90.50;;;16.41;100.00;98206.91;5001097;28;20487;-68
2022/06/17 01:33:29;;;;;;;2.45;0.93;;;16.70;90.50;;;16.47;100.00;98200.50;4998278;28;20048;-68
2022/06/17 01:36:26;;;;;;;2.35;0.73;;;16.80;90.50;;;16.56;100.00;98213.09;4998220;28;20481;-68
2022/06/17 01:38:57;;;;;;;2.15;0.82;;;16.90;90.60;;;16.64;100.00;98212.63;4996853;28;20170;-67
2022/06/17 01:41:28;;;;;;;3.47;1.23;;;16.90;90.30;;;16.47;100.00;98217.06;5003524;28;20137;-68
2022/06/17 01:44:00;;;;;;;2.63;0.82;;;16.90;90.40;;;16.65;100.00;98220.41;5001434;28;20299;-68
2022/06/17 01:46:39;;;;;;;;;;;17.00;90.30;;;16.64;100.00;98221.34;5001680;28;20184;-68
2022/06/17 01:49:10;;;;;;;4.07;0.85;;;17.00;90.40;;;16.58;100.00;98220.84;4997425;28;19944;-67
2022/06/17 01:51:43;;;;;;;4.65;0.80;;;17.00;90.40;;;16.47;100.00;98224.09;4998066;28;20146;-67
2022/06/17 01:54:15;;;;;;;;;;;16.90;90.50;;;16.50;100.00;98232.59;5002547;28;20051;-68
2022/06/17 01:56:44;;;;;;;3.58;0.80;;;16.90;90.50;;;16.32;100.00;98220.53;4999703;28;20066;-67
2022/06/17 01:59:18;;;;;;;2.80;0.80;;;16.90;90.70;;;16.48;100.00;98217.91;4997798;28;20141;-68
2022/06/17 02:01:49;;;;;;;2.88;0.70;;;16.90;90.70;;;16.61;100.00;98226.75;4999033;28;20111;-68
2022/06/17 02:04:28;;;;;;;4.60;0.80;;;16.90;90.60;;;16.50;100.00;98218.66;5011198;28;20041;-67
2022/06/17 02:07:26;;;;;;;3.78;0.90;;;16.80;90.70;;;16.38;100.00;98219.38;4996862;28;20112;-68
2022/06/17 02:09:53;;;;;;;3.63;0.82;;;16.80;90.80;;;16.22;100.00;98217.59;5001980;28;20508;-69
2022/06/17 02:12:21;;;;;;;3.35;0.75;;;16.80;90.80;;;16.36;100.00;98223.84;4995796;28;20077;-68
2022/06/17 02:14:49;;;;;;;2.95;0.80;;;16.70;90.80;;;16.28;100.00;98226.88;4998802;28;20121;-68
2022/06/17 02:17:15;;;;;;;2.78;0.80;;;16.70;91.10;;;16.19;100.00;98228.22;4998154;28;20042;-69
2022/06/17 02:19:46;;;;;;;3.75;0.75;;;16.50;91.40;;;15.88;100.00;98224.66;4998218;28;20054;-68
2022/06/17 02:22:25;;;;;;;3.63;0.85;;;16.40;92.00;;;15.77;100.00;98223.53;4995881;28;20046;-68
2022/06/17 02:24:58;;;;;;;5.70;0.95;;;16.30;92.40;;;15.60;100.00;98222.66;4996752;28;20054;-67
2022/06/17 02:27:27;;;;;;;4.63;0.82;;;16.20;92.60;;;15.53;100.00;98218.66;4998486;28;20042;-68
2022/06/17 02:29:55;;;;;;;1.70;0.80;;;16.00;93.10;;;15.36;100.00;98227.38;4998392;28;20692;-68
2022/06/17 02:32:22;;;;;;;2.25;0.80;;;16.00;93.20;;;15.27;100.00;98222.63;5001491;28;20145;-67
2022/06/17 02:35:01;;;;;;;3.55;1.10;;;15.90;93.50;;;15.13;100.00;98228.56;5002407;28;20125;-67
2022/06/17 02:37:31;;;;;;;4.03;1.00;;;15.80;94.10;;;15.02;100.00;98233.47;4999392;28;20069;-67
2022/06/17 02:40:02;;;;;;;4.00;0.90;;;15.60;94.50;;;15.10;100.00;98239.19;4997885;28;20080;-67
2022/06/17 02:42:33;;;;;;;2.50;0.90;;;15.50;94.60;;;15.11;100.00;98232.16;4998551;28;20131;-68
2022/06/17 02:45:12;;;;;;;2.47;0.70;;;15.50;94.90;;;15.09;100.00;98223.56;4999441;28;20706;-67
2022/06/17 02:47:39;;;;;;;2.13;0.77;;;15.50;95.00;;;15.14;100.00;98226.78;4998624;28;20080;-67
2022/06/17 02:50:12;;;;;;;2.00;0.80;;;15.50;95.10;;;15.11;100.00;98229.56;4997582;28;20078;-67
2022/06/17 02:52:40;;;;;;;6.00;1.10;;;15.50;95.30;;;14.68;100.00;98236.91;4996707;28;20427;-68
2022/06/17 02:55:33;;;;;;;3.00;1.00;;;15.40;95.90;;;14.41;100.00;98238.13;4995478;28;20361;-68
2022/06/17 02:58:17;;;;;;;;;;;15.30;96.40;;;14.36;100.00;98237.50;5000134;28;20136;-67
2022/06/17 03:00:46;;;;;;;2.80;0.90;;;15.10;97.20;;;14.44;100.00;98237.97;5008465;28;20012;-68
2022/06/17 03:03:16;;;;;;;1.27;0.75;;;15.00;97.50;;;14.35;100.00;98243.66;5005036;28;20043;-67
2022/06/17 03:05:45;;;;;;;2.08;0.82;;;14.90;97.80;;;14.35;100.00;98238.44;5005400;28;20201;-67
2022/06/17 03:08:29;;;;;;;1.77;0.90;;;14.90;98.40;;;14.29;100.00;98243.94;5003627;28;20069;-67
2022/06/17 03:11:00;;;;;;;2.03;0.85;;;14.80;99.00;;;14.22;100.00;98245.13;5005537;28;20124;-69
2022/06/17 03:13:46;;;;;;;3.80;1.10;;;14.80;99.30;;;14.03;100.00;98250.38;5007772;28;20132;-67
2022/06/17 03:16:15;;;;;;;3.70;1.05;;;14.60;99.90;;;13.95;100.00;98255.91;5004488;28;20046;-69
2022/06/17 03:18:45;;;;;;;5.07;1.20;;;14.50;99.90;;;14.04;100.00;98256.44;5005833;28;20081;-68
2022/06/17 03:21:14;;;;;;;3.90;1.00;;;14.50;99.90;;;13.82;100.00;98260.00;5003641;28;20045;-68
2022/06/17 03:24:00;;;;;;;2.58;0.93;;;14.50;99.90;;;13.85;100.00;98257.28;5001454;28;20508;-68
2022/06/17 03:26:37;;;;;;;3.50;0.90;;;14.50;99.90;;;13.72;100.00;98256.97;5006196;28;20448;-67
2022/06/17 03:29:07;;;;;;;3.67;1.15;;;14.30;99.90;;;13.59;100.00;98259.28;5004065;28;20085;-68
2022/06/17 03:32:01;;;;;;;3.53;1.00;;;14.20;99.90;;;13.47;100.00;98265.00;5004918;28;20141;-67
2022/06/17 03:34:45;;;;;;;2.42;0.90;;;14.10;99.90;;;13.39;100.00;98267.97;5022632;28;20191;-68
2022/06/17 03:37:23;;;;;;;4.25;1.10;;;14.00;99.90;;;13.47;100.00;98264.16;5003364;28;20160;-68
2022/06/17 03:39:54;;;;;;;3.55;1.25;;;13.90;99.90;;;13.43;100.00;98260.84;5008137;28;20042;-68
2022/06/17 03:42:42;;;;;;;4.03;1.10;;;14.00;99.90;;;13.41;100.00;98262.69;5002921;28;20137;-67
2022/06/17 03:45:19;;;;;;;1.92;0.90;;;14.00;99.90;;;13.47;100.00;98272.00;5002300;28;20148;-67
2022/06/17 03:48:03;;;;;;;2.47;1.00;;;14.00;99.90;;;13.27;100.00;98273.66;5005545;28;20868;-67
2022/06/17 03:50:35;;;;;;;2.28;1.08;;;13.90;99.90;;;13.37;100.00;98274.16;5004831;28;20121;-67
2022/06/17 03:53:23;;;;;;;1.63;0.97;;;13.90;99.90;;;13.49;100.00;98264.97;5006605;28;20049;-67
2022/06/17 03:55:54;;;;;;;2.55;1.00;;;14.10;99.90;;;13.48;100.00;98266.72;5001566;28;20138;-68
2022/06/17 03:58:22;;;;;;;3.85;0.90;;;14.10;99.90;;;13.41;100.00;98270.50;5007626;28;20414;-68
2022/06/17 04:01:17;;;;;;;2.22;0.90;;;14.10;99.90;;;13.32;100.00;98274.34;5003088;28;20124;-67
2022/06/17 04:03:51;;;;;;;3.05;0.88;;;14.00;99.90;;;13.35;100.00;98274.22;5007376;28;20046;-67
2022/06/17 04:06:24;;;;;;;2.17;0.90;;;14.10;99.90;;;13.39;100.00;98281.00;5003622;28;20676;-67
2022/06/17 04:09:00;;;;;;;2.17;1.00;;;14.10;99.90;;;13.50;100.00;98277.06;5002362;28;20527;-68
2022/06/17 04:11:36;;;;;;;2.10;1.00;;;14.10;99.90;;;13.41;100.00;98280.94;5001173;28;20080;-67
2022/06/17 04:14:13;;;;;;;1.92;0.80;;;14.20;99.90;;;13.59;100.00;98285.38;5008312;28;20042;-67
2022/06/17 04:16:44;;;;;;;2.67;1.00;;;14.20;99.90;;;13.60;100.00;98281.81;5006214;28;20123;-67
2022/06/17 04:19:25;;;;;;;4.65;0.90;;;14.30;99.90;;;13.81;100.00;98285.25;4999555;28;20068;-69
2022/06/17 04:21:56;;;;;;;4.38;1.10;;;14.40;99.90;;;13.98;100.00;98286.25;5000679;28;20130;-68
2022/06/17 04:24:25;;;;;;;2.43;1.13;;;14.60;99.90;;;14.09;100.00;98291.84;4999551;28;20129;-68
2022/06/17 04:27:03;;;;;;;3.17;1.00;;;14.70;99.90;;;14.04;100.00;98296.44;5001853;28;20392;-68
2022/06/17 04:29:40;;;;;;;3.58;1.33;;;14.80;99.90;;;14.18;100.00;98295.78;5001099;28;20127;-67
2022/06/17 04:32:34;;;;;;;4.97;1.10;;;14.90;99.90;;;14.39;100.00;98299.19;5005688;28;20380;-67
2022/06/17 04:35:01;;;;;;;2.13;0.90;;;15.10;99.90;;;14.56;100.00;98294.06;5001352;28;20045;-68
2022/06/17 04:37:28;;;;;;;2.13;0.80;;;15.30;99.90;;;14.96;100.00;98284.31;4997420;28;20046;-68
2022/06/17 04:39:58;;;;;;;2.53;0.90;;;15.50;99.90;;;15.29;100.00;98291.38;5000231;28;20157;-68
2022/06/17 04:42:40;;;;;;;5.18;1.10;;;15.80;99.90;;;15.45;100.00;98299.31;5003619;28;20050;-68
2022/06/17 04:45:28;;;;;;;4.05;1.15;;;15.90;99.90;;;15.25;100.00;98297.69;5002888;28;20050;-68
2022/06/17 04:47:57;;;;;;;2.38;1.02;;;16.10;99.90;;;15.26;100.00;98299.41;5000083;28;20075;-68
2022/06/17 04:50:28;;;;;;;2.78;0.90;;;16.10;99.90;;;15.26;100.00;98296.78;4999360;28;20050;-68
2022/06/17 04:52:55;;;;;;;6.25;1.02;;;16.20;99.90;;;15.44;100.00;98295.84;4998850;28;20138;-68
2022/06/17 04:55:28;;;;;;;2.40;1.02;;;16.20;99.90;;;15.39;100.00;98297.81;4999373;28;20115;-69
2022/06/17 04:57:55;;;;;;;;;;;16.30;99.90;;;15.60;100.00;98292.44;4998066;28;20136;-68
2022/06/17 05:00:26;;;;;;;1.65;0.80;;;16.50;99.90;;;15.72;100.00;98294.47;4999691;28;20032;-68
2022/06/17 05:02:54;;;;;;;2.33;0.90;;;16.60;99.90;;;15.93;100.00;98296.88;4998630;28;20049;-67
2022/06/17 05:05:34;;;;;;;1.88;0.80;;;16.80;99.90;;;15.98;100.00;98294.84;5001058;28;20077;-68
2022/06/17 05:08:12;;;;;;;2.85;0.88;;;16.80;99.90;;;15.99;100.00;98296.56;5002575;28;20085;-68
2022/06/17 05:10:45;;;;;;;1.85;0.75;;;16.90;99.90;;;15.93;100.00;98297.72;4999674;28;20081;-68
2022/06/17 05:13:15;;;;;;;2.08;0.80;;;16.90;99.90;;;16.20;100.00;98302.41;5003341;28;20062;-67
2022/06/17 05:15:42;;;;;;;2.97;1.02;;;17.00;99.90;;;16.34;100.00;98297.28;5000124;28;20129;-67
2022/06/17 05:18:08;;;;;;;4.45;1.02;;;17.10;99.90;;;16.35;100.00;98308.59;5000103;28;20484;-67
2022/06/17 05:20:35;;;;;;;5.10;0.90;;;17.20;99.90;;;16.47;100.00;98307.94;5000364;28;20129;-68
2022/06/17 05:23:06;;;;;;;4.60;0.85;;;17.20;99.90;;;16.58;100.00;98308.19;4996745;28;20447;-67
2022/06/17 05:25:43;;;;;;;5.57;0.90;;;17.40;99.90;;;16.56;100.00;98312.69;4997434;28;20200;-68
2022/06/17 05:28:18;;;;;;;2.20;0.80;;;17.50;99.90;;;16.74;100.00;98318.66;4998486;28;20121;-67
2022/06/17 05:30:53;;;;;;;3.45;1.02;;;17.60;99.90;;;16.83;100.00;98315.56;5000899;28;20050;-68
2022/06/17 05:33:23;;;;;;;3.25;0.93;;;17.70;99.90;;;17.19;100.00;98311.75;4997379;28;20393;-67
2022/06/17 05:35:50;;;;;;;2.33;1.08;;;17.90;99.90;;;17.32;100.00;98314.53;4997485;28;20074;-67
2022/06/17 05:38:17;;;;;;;2.03;1.00;;;18.20;99.90;;;17.49;100.00;98310.91;4999201;28;20598;-67
2022/06/17 05:40:45;;;;;;;3.03;0.73;;;18.30;99.90;;;17.60;100.00;98311.09;5002914;28;20086;-68
2022/06/17 05:43:13;;;;;;;4.40;0.98;;;18.50;99.90;;;17.78;100.00;98317.03;5000058;28;20115;-67
2022/06/17 05:45:40;;;;;;;3.00;1.00;;;18.60;99.90;;;17.83;100.00;98316.81;4998697;28;20082;-67
2022/06/17 05:48:07;;;;;;;3.50;0.88;;;18.90;99.90;;;18.03;100.00;98319.06;5000750;28;20074;-67
2022/06/17 05:50:35;;;;;;;3.03;0.65;;;19.10;99.90;;;18.10;100.00;98311.66;4999448;28;20575;-68
2022/06/17 05:53:05;;;;;;;4.25;0.80;;;19.30;99.90;;;18.13;100.00;98308.81;5011693;28;20082;-68
2022/06/17 05:55:35;;;;;;;2.72;0.70;;;19.40;99.90;;;18.40;100.00;98306.25;4995474;28;20082;-67
2022/06/17 05:58:04;;;;;;;3.97;0.77;;;19.60;99.90;;;18.43;100.00;98308.72;4997346;28;20061;-67
2022/06/17 06:00:32;;;;;;;2.40;0.70;;;19.60;99.90;;;18.99;100.00;98306.03;4998218;28;20457;-68
2022/06/17 06:03:03;;;;;;;2.45;0.60;;;;;;;19.36;100.00;98311.50;4994973;28;20485;-67
2022/06/17 06:05:32;;;;;;;2.80;0.88;;;;;;;19.38;100.00;98310.44;4996618;28;20053;-68
2022/06/17 06:07:59;;;;;;;3.05;0.77;;;20.60;99.90;;;19.71;100.00;98308.34;5000937;28;20073;-68
2022/06/17 06:10:32;;;;;;;3.15;0.70;;;20.70;99.90;;;19.49;100.00;98309.75;4997119;28;20142;-68
2022/06/17 06:13:08;;;;;;;2.08;0.70;;;20.70;99.90;;;19.44;100.00;98309.22;4997263;28;20129;-68
2022/06/17 06:15:42;;;;;;;3.67;0.80;;;20.60;99.90;;;19.56;100.00;98312.81;4995536;28;20082;-68
2022/06/17 06:18:13;;;;;;;4.85;0.85;;;20.60;99.90;;;19.72;100.00;98310.84;4993652;28;20133;-67
2022/06/17 06:20:40;;;;;;;4.00;0.90;;;20.60;99.90;;;19.75;100.00;98312.41;5004430;28;20488;-68
2022/06/17 06:23:08;;;;;;;2.13;0.60;;;20.60;99.90;;;19.91;100.00;98309.56;5002023;28;20156;-67
2022/06/17 06:25:36;;;;;;;3.25;0.90;;;20.80;99.70;;;19.92;100.00;98309.47;4996461;28;20089;-68
2022/06/17 06:28:11;;;;;;;2.67;0.85;;;21.00;99.60;;;19.86;100.00;98304.63;5000614;28;20081;-68
2022/06/17 06:30:39;;;;;;;3.60;0.70;;;21.10;99.30;;;19.80;100.00;98307.72;4999354;28;20145;-67
2022/06/17 06:33:06;;;;;;;1.40;0.60;;;21.20;99.10;;;19.91;100.00;98306.94;4998501;28;20084;-67
2022/06/17 06:35:39;;;;;;;4.18;0.82;;;21.00;98.70;;;20.04;100.00;98308.63;4996275;28;20111;-67
2022/06/17 06:38:06;;;;;;;2.35;0.70;;;21.00;98.50;;;20.09;100.00;98312.72;4995098;28;20100;-69
2022/06/17 06:40:35;;;;;;;3.60;0.70;;;21.10;98.60;;;19.84;100.00;98322.31;4993558;28;20153;-68
2022/06/17 06:43:03;;;;;;;5.55;0.77;;;21.20;98.70;;;20.03;100.00;98321.91;5001981;28;20081;-68
2022/06/17 06:45:34;;;;;;;1.67;0.60;;;21.00;98.40;;;20.24;100.00;98328.31;4999835;28;20058;-68
2022/06/17 06:48:07;;;;;;;2.43;0.60;;;21.20;99.10;;;20.31;100.00;98328.72;4999297;28;20161;-68
2022/06/17 06:50:35;;;;;;;2.30;0.65;;;21.40;99.10;;;20.67;100.00;98335.03;5004722;28;20168;-68
2022/06/17 06:53:04;;;;;;;3.90;0.80;;;21.70;98.10;;;20.71;100.00;98327.72;4998572;28;20064;-68
2022/06/17 06:55:32;;;;;;;3.42;0.77;;;21.90;99.50;;;20.91;100.00;98321.84;5001960;28;20125;-68
2022/06/17 06:58:08;;;;;;;4.20;1.02;;;22.10;98.70;;;20.80;100.00;98313.84;4995538;28;20187;-68
2022/06/17 07:00:46;;;;;;;4.13;0.80;;;22.20;98.20;;;20.88;100.00;98311.50;4994013;28;20145;-67
2022/06/17 07:03:15;;;;;;;1.98;0.73;;;22.30;97.50;;;21.03;100.00;98318.31;4997365;28;20058;-67
2022/06/17 07:05:46;;;;;;;1.42;0.68;;;22.40;98.00;;;21.33;100.00;98318.78;4994280;28;20571;-69
2022/06/17 07:08:18;;;;;;;2.87;0.80;;;22.60;98.10;;;21.26;100.00;98300.75;4993701;28;20078;-69
2022/06/17 07:10:48;;;;;;;2.22;0.65;;;22.70;98.10;;;21.74;100.00;98307.75;4994366;28;20085;-68
2022/06/17 07:13:15;;;;;;;2.80;0.63;;;22.80;97.90;;;21.63;100.00;98310.38;4994163;28;20046;-68
2022/06/17 07:15:45;;;;;;;2.42;0.70;;;22.80;94.80;;;21.72;100.00;98307.88;4995214;28;20082;-68
2022/06/17 07:18:24;;;;;;;3.20;0.80;;;22.90;95.90;;;21.89;100.00;98309.19;4998680;28;20089;-68
2022/06/17 07:20:56;;;;;;;3.17;0.70;;;22.90;95.30;;;22.11;100.00;98299.63;4997166;28;20429;-68
2022/06/17 07:23:30;;;;;;;;;;;23.00;95.20;;;22.01;100.00;98296.88;4996010;28;20046;-68
2022/06/17 07:25:59;;;;;;;2.38;0.50;;;23.20;95.50;;;22.15;100.00;98301.06;4998562;28;19992;-69
2022/06/17 07:28:26;;;;;;;1.98;0.60;;;23.20;95.90;;;22.42;100.00;98299.84;4996496;28;20157;-67
2022/06/17 07:30:55;;;;;;;4.97;0.77;;;23.30;95.00;;;22.00;100.00;98291.69;4999019;28;20064;-68
2022/06/17 07:33:26;;;;;;;3.67;0.70;;;23.10;94.00;;;21.89;100.00;98296.00;5002315;28;20140;-68
2022/06/17 07:35:57;;;;;;;1.30;0.52;;;23.10;94.70;;;22.58;100.00;98291.53;5011784;28;20137;-67
2022/06/17 07:41:16;;;;;;;2.22;0.70;;;23.50;94.50;;;22.42;100.00;98313.94;5002779;28;20052;-67
2022/06/17 07:43:46;;;;;;;2.38;0.80;;;23.60;94.40;;;22.19;100.00;98310.44;4998196;28;20065;-67
2022/06/17 07:46:20;;;;;;;2.45;0.50;;;23.60;94.80;;;22.50;100.00;98308.88;5005964;28;20053;-68
2022/06/17 07:48:47;;;;;;;2.40;0.90;;;23.50;94.60;;;22.62;100.00;98316.78;5014490;28;20221;-68
2022/06/17 07:51:16;;;;;;;1.67;0.60;;;23.60;94.70;;;22.59;100.00;98306.47;5012862;28;20674;-67
2022/06/17 07:53:43;;;;;;;1.70;0.50;;;23.60;95.20;;;22.57;100.00;98303.09;5011998;28;20085;-67
2022/06/17 07:56:15;;;;;;;2.58;0.60;;;23.60;99.10;;;22.76;100.00;98306.78;5011521;28;20139;-68
2022/06/17 07:58:43;;;;;;;2.15;0.60;;;23.70;99.90;;;22.41;100.00;98308.78;5013389;28;20077;-67
2022/06/17 08:01:13;;;;;;;1.92;0.60;;;23.80;99.10;;;22.51;100.00;98305.28;5005533;28;20082;-67
2022/06/17 08:03:41;;;;;;;3.25;0.60;;;23.70;99.20;;;22.66;100.00;98308.47;5001427;28;20461;-68
2022/06/17 08:06:11;;;;;;;3.75;0.60;;;23.70;98.80;;;23.01;100.00;98303.97;5002607;28;20038;-68
2022/06/17 08:08:39;;;;;;;2.03;0.60;;;23.70;98.90;;;23.15;100.00;98301.03;4999345;28;20132;-67
2022/06/17 08:11:07;;;;;;;3.08;0.63;;;24.00;99.40;;;23.17;100.00;98294.66;4998634;28;20104;-67
2022/06/17 08:13:34;;;;;;;1.48;0.50;;;24.00;98.90;;;23.39;100.00;98296.31;5013770;28;20051;-68
2022/06/17 08:16:06;;;;;;;1.67;0.68;;;24.10;98.90;;;23.51;100.00;98294.44;5008493;28;20129;-68
2022/06/17 08:18:36;;;;;;;4.35;0.70;;;24.20;99.30;;;23.61;100.00;98291.88;5009728;28;20058;-66
2022/06/17 08:21:03;;;;;;;1.55;0.60;;;24.40;98.90;;;23.67;100.00;98293.16;5003507;28;20050;-67
2022/06/17 08:23:30;;;;;;;6.90;0.60;;;24.40;98.50;;;23.80;100.00;98291.19;4997324;28;20132;-68
2022/06/17 08:26:00;;;;;;;2.00;0.52;;;24.60;98.60;;;24.52;100.00;98281.41;5013500;28;20080;-67
2022/06/17 08:28:28;;;;;;;1.85;0.60;;;24.80;98.60;;;24.08;100.00;98288.78;5011814;28;20049;-67
2022/06/17 08:30:57;;;;;;;3.45;0.70;;;24.90;97.70;;;23.97;100.00;98276.47;5008023;28;20525;-67
2022/06/17 08:33:29;;;;;;;2.92;0.55;;;24.80;97.20;;;24.11;100.00;98284.06;5011587;28;20050;-68
2022/06/17 08:36:20;;;;;;;1.58;0.47;;;24.90;98.00;;;24.20;100.00;98280.63;5012815;28;20400;-68
2022/06/17 08:38:56;;;;;;;1.20;0.50;;;25.10;96.90;;;24.31;100.00;98294.75;5013536;28;20042;-67
2022/06/17 08:41:33;;;;;;;1.10;0.50;;;25.20;95.90;;;24.30;100.00;98293.06;5014192;28;20046;-69
2022/06/17 08:44:28;;;;;;;1.58;0.60;;;25.20;96.10;;;24.31;99.37;98290.28;5009726;28;20050;-68
2022/06/17 08:47:16;;;;;;;2.15;0.50;;;25.40;95.00;;;24.36;98.71;98292.53;5013138;28;20053;-67
2022/06/17 08:50:31;;;;;;;5.53;0.60;;;25.30;94.60;;;24.41;97.15;98299.13;5015476;28;20115;-68
2022/06/17 08:53:04;;;;;;;1.42;0.57;;;25.30;94.80;;;24.66;96.48;98302.28;5012415;28;20077;-68
2022/06/17 08:55:53;;;;;;;1.27;0.40;;;25.50;93.90;;;25.10;95.51;98300.09;5009082;28;20583;-68
2022/06/17 08:58:21;;;;;;;1.67;0.50;;;;;;;25.09;98.25;98303.75;5013162;28;20126;-68
2022/06/17 09:00:53;;;;;;;2.55;0.50;;;26.10;83.50;;;25.20;96.46;98302.78;5011250;28;20180;-68
2022/06/17 09:03:43;;;;;;;3.00;0.50;;;26.10;83.80;;;25.79;95.73;98306.19;5014123;28;20218;-68
2022/06/17 09:06:43;;;;;;;2.40;0.52;;;26.10;83.40;;;25.97;93.27;98304.50;4998345;28;20084;-68
2022/06/17 09:09:56;;;;;;;1.50;0.40;;;26.40;85.90;;;26.64;93.10;98305.22;5001154;28;20129;-67
2022/06/17 09:12:47;;;;;;;1.33;0.40;;;27.00;93.90;;;27.00;87.28;98313.22;4975782;28;20395;-67
2022/06/17 09:15:43;;;;;;;1.25;0.40;;;27.40;89.80;;;27.13;82.65;98313.69;4962857;28;20519;-66
2022/06/17 09:18:19;;;;;;;1.85;0.63;;;27.60;88.90;;;26.81;80.93;98300.91;4990559;28;20054;-66
2022/06/17 09:20:54;;;;;;;1.58;0.50;;;27.60;83.80;;;26.63;81.40;98310.69;4990172;28;20137;-66
2022/06/17 09:23:25;;;;;;;1.67;0.40;;;27.80;81.80;;;26.79;83.45;98302.88;4992479;28;20132;-67
2022/06/17 09:25:54;;;;;;;1.08;0.25;;;27.60;81.80;;;28.01;81.08;98314.75;4992107;28;20529;-66
2022/06/17 09:28:29;;;;;;;1.45;0.40;;;27.80;81.50;;;27.89;75.07;98311.50;4989833;28;20046;-67
2022/06/17 09:31:15;;;;;;;1.40;0.40;;;28.00;75.50;;;27.84;75.11;98311.16;4993280;28;20096;-68
2022/06/17 09:33:54;;;;;;;1.40;0.40;;;28.20;74.80;;;27.04;75.50;98309.28;4991232;28;20054;-66
2022/06/17 09:36:33;;;;;;;3.13;0.40;;;28.00;73.40;;;28.31;74.92;98308.91;4991342;28;20868;-67
2022/06/17 09:39:14;;;;;;;2.08;0.30;;;28.40;74.50;;;28.67;68.30;98302.53;4991040;28;20133;-66
2022/06/17 09:41:51;;;;;;;0.57;0.30;;;28.60;73.10;;;29.29;65.09;98292.34;4988853;28;20078;-66
2022/06/17 09:44:28;;;;;;;4.05;0.50;;;28.60;73.00;;;28.21;70.32;98297.50;4990332;28;20635;-67
2022/06/17 09:47:10;;;;;;;1.95;0.40;;;28.80;72.90;;;28.71;68.89;98295.88;4990927;28;20065;-66
2022/06/17 09:49:59;;;;;;;2.45;0.40;;;29.10;73.00;;;28.49;64.38;98302.69;4987173;28;20084;-66
2022/06/17 09:52:32;;;;;;;0.57;0.30;;;28.80;70.90;;;29.10;59.53;98292.63;4985011;28;20133;-67
2022/06/17 09:55:27;;;;;;;0.75;0.30;;;28.90;70.10;;;29.84;58.88;98292.66;4989869;28;20037;-67
2022/06/17 09:58:19;;;;;;;2.05;0.30;;;29.50;71.00;;;29.37;53.29;98294.16;4989468;28;20054;-66
2022/06/17 10:00:52;;;;;;;1.25;0.30;;;29.30;68.40;;;29.04;54.21;98290.63;4994348;28;20141;-66
2022/06/17 10:03:28;;;;;;;1.83;0.30;;;29.20;68.00;;;29.08;55.52;98290.16;4986967;28;20045;-66
2022/06/17 10:06:28;;;;;;;1.38;0.40;;;29.30;68.60;;;29.24;53.05;98291.16;5003451;28;20093;-66
2022/06/17 10:09:15;;;;;;;5.10;0.32;;;29.70;67.60;;;30.29;50.86;98291.19;4985626;28;20056;-66
2022/06/17 10:12:05;;;;;;;0.95;0.35;;;29.80;67.60;;;29.61;48.06;98296.00;4989581;28;20065;-66
2022/06/17 10:14:57;;;;;;;1.20;0.30;;;29.50;65.20;;;30.89;46.46;98292.44;4988107;28;20058;-66
2022/06/17 10:21:06;;;;;;;2.58;0.40;;;30.30;66.60;;;31.34;45.52;98288.06;4992819;28;20471;-66
2022/06/17 10:23:52;;;;;;;3.33;0.40;;;30.70;66.60;;;32.22;50.76;98287.38;4988271;28;20086;-66
2022/06/17 10:27:11;;;;;;;5.57;0.30;;;31.00;68.60;;;32.77;48.69;98282.50;4990600;28;20133;-66
2022/06/17 10:30:32;;;;;;;1.15;0.38;;;31.30;67.90;;;30.84;46.24;98279.53;4994412;28;20122;-66
2022/06/17 10:32:59;;;;;;;;;;;30.60;66.20;;;31.04;47.89;98271.88;4979151;28;20507;-66
2022/06/17 10:35:30;;;;;;;1.58;0.30;;;30.80;66.30;;;30.38;51.31;98285.63;4989835;28;19925;-67
2022/06/17 10:38:01;;;;;;;1.48;0.40;;;30.70;66.60;;;30.72;48.33;98284.44;5005162;28;20152;-67
2022/06/17 10:40:34;;;;;;;2.67;0.50;;;30.60;65.80;;;30.60;49.92;98275.97;4990806;28;20061;-66
2022/06/17 10:43:11;;;;;;;1.40;0.30;;;30.60;66.60;;;30.19;50.09;98283.34;4987914;28;20073;-66
2022/06/17 10:45:38;;;;;;;3.10;0.40;;;30.50;65.40;;;30.79;46.06;98287.25;4987665;28;20160;-65
2022/06/17 10:48:27;;;;;;;1.98;0.30;;;30.70;64.60;;;30.70;49.01;98281.13;4987710;28;20527;-67
2022/06/17 10:50:53;;;;;;;2.13;0.30;;;31.00;66.00;;;30.59;47.36;98289.56;4984771;28;20064;-67
2022/06/17 10:53:34;;;;;;;3.92;0.30;;;31.20;64.90;;;32.03;42.03;98296.84;4987132;28;20168;-66
2022/06/17 10:56:09;;;;;;;2.08;0.38;;;31.50;63.50;;;31.53;40.01;98276.88;4987785;28;20053;-66